sensor_id;sensor_type;location;lat;lon;timestamp;P1;durP1;ratioP1;P2;durP2;ratioP2
55989;SDS011;41875;55.806;38.082;2022-11-20T00:01:31;22.40;;;7.70;;
55989;SDS011;41875;55.806;38.082;2022-11-20T00:04:02;17.20;;;6.80;;
55989;SDS011;41875;55.806;38.082;2022-11-20T00:06:30;19.42;;;8.45;;
55989;SDS011;41875;55.806;38.082;2022-11-20T00:08:59;20.17;;;6.70;;
55989;SDS011;41875;55.806;38.082;2022-11-20T00:11:28;17.25;;;7.57;;
55989;SDS011;41875;55.806;38.082;2022-11-20T00:13:59;17.05;;;7.03;;
55989;SDS011;41875;55.806;38.082;2022-11-20T00:16:30;18.23;;;7.90;;
55989;SDS011;41875;55.806;38.082;2022-11-20T00:18:59;20.13;;;7.43;;
55989;SDS011;41875;55.806;38.082;2022-11-20T00:21:29;16.58;;;7.05;;
55989;SDS011;41875;55.806;38.082;2022-11-20T00:23:58;21.27;;;8.55;;
55989;SDS011;41875;55.806;38.082;2022-11-20T00:28:56;16.92;;;6.50;;
55989;SDS011;41875;55.806;38.082;2022-11-20T00:31:25;15.52;;;7.05;;
55989;SDS011;41875;55.806;38.082;2022-11-20T00:33:54;17.50;;;7.10;;
55989;SDS011;41875;55.806;38.082;2022-11-20T00:36:24;19.67;;;6.80;;
55989;SDS011;41875;55.806;38.082;2022-11-20T00:38:55;19.30;;;7.00;;
55989;SDS011;41875;55.806;38.082;2022-11-20T00:41:25;18.02;;;6.97;;
55989;SDS011;41875;55.806;38.082;2022-11-20T00:43:55;14.35;;;5.55;;
55989;SDS011;41875;55.806;38.082;2022-11-20T00:46:24;9.68;;;4.03;;
55989;SDS011;41875;55.806;38.082;2022-11-20T00:48:54;17.00;;;7.00;;
55989;SDS011;41875;55.806;38.082;2022-11-20T00:51:23;17.60;;;6.50;;
55989;SDS011;41875;55.806;38.082;2022-11-20T00:53:55;11.73;;;5.05;;
55989;SDS011;41875;55.806;38.082;2022-11-20T00:56:24;19.10;;;7.28;;
55989;SDS011;41875;55.806;38.082;2022-11-20T00:58:53;17.23;;;7.32;;
55989;SDS011;41875;55.806;38.082;2022-11-20T01:01:22;24.02;;;8.05;;
55989;SDS011;41875;55.806;38.082;2022-11-20T01:03:52;17.75;;;7.13;;
55989;SDS011;41875;55.806;38.082;2022-11-20T01:06:23;14.73;;;4.88;;
55989;SDS011;41875;55.806;38.082;2022-11-20T01:08:53;20.08;;;6.82;;
55989;SDS011;41875;55.806;38.082;2022-11-20T01:11:25;15.68;;;6.32;;
55989;SDS011;41875;55.806;38.082;2022-11-20T01:13:55;19.42;;;6.65;;
55989;SDS011;41875;55.806;38.082;2022-11-20T01:16:25;15.77;;;5.90;;
55989;SDS011;41875;55.806;38.082;2022-11-20T01:18:56;16.65;;;7.07;;
55989;SDS011;41875;55.806;38.082;2022-11-20T01:21:27;17.63;;;6.88;;
55989;SDS011;41875;55.806;38.082;2022-11-20T01:23:59;18.48;;;7.32;;
55989;SDS011;41875;55.806;38.082;2022-11-20T01:26:28;17.33;;;6.40;;
55989;SDS011;41875;55.806;38.082;2022-11-20T01:28:59;18.17;;;7.18;;
55989;SDS011;41875;55.806;38.082;2022-11-20T01:31:28;19.63;;;7.15;;
55989;SDS011;41875;55.806;38.082;2022-11-20T01:33:58;17.92;;;6.45;;
55989;SDS011;41875;55.806;38.082;2022-11-20T01:36:28;17.77;;;6.68;;
55989;SDS011;41875;55.806;38.082;2022-11-20T01:39:00;20.15;;;7.50;;
55989;SDS011;41875;55.806;38.082;2022-11-20T01:41:32;14.65;;;6.35;;
55989;SDS011;41875;55.806;38.082;2022-11-20T01:44:20;17.15;;;6.40;;
55989;SDS011;41875;55.806;38.082;2022-11-20T01:46:52;21.52;;;7.18;;
55989;SDS011;41875;55.806;38.082;2022-11-20T01:49:27;19.02;;;7.65;;
55989;SDS011;41875;55.806;38.082;2022-11-20T01:52:03;18.90;;;7.40;;
55989;SDS011;41875;55.806;38.082;2022-11-20T01:54:38;19.00;;;7.60;;
55989;SDS011;41875;55.806;38.082;2022-11-20T01:57:11;17.65;;;6.90;;
55989;SDS011;41875;55.806;38.082;2022-11-20T01:59:43;19.38;;;7.88;;
55989;SDS011;41875;55.806;38.082;2022-11-20T02:02:18;17.23;;;6.97;;
55989;SDS011;41875;55.806;38.082;2022-11-20T02:04:47;18.60;;;6.97;;
55989;SDS011;41875;55.806;38.082;2022-11-20T02:07:19;20.10;;;7.50;;
55989;SDS011;41875;55.806;38.082;2022-11-20T02:09:50;19.00;;;6.63;;
55989;SDS011;41875;55.806;38.082;2022-11-20T02:12:24;17.75;;;7.30;;
55989;SDS011;41875;55.806;38.082;2022-11-20T02:15:30;21.05;;;7.00;;
55989;SDS011;41875;55.806;38.082;2022-11-20T02:18:01;17.40;;;6.93;;
55989;SDS011;41875;55.806;38.082;2022-11-20T02:22:59;14.50;;;5.40;;
55989;SDS011;41875;55.806;38.082;2022-11-20T02:25:34;16.10;;;5.93;;
55989;SDS011;41875;55.806;38.082;2022-11-20T02:28:04;17.08;;;6.78;;
55989;SDS011;41875;55.806;38.082;2022-11-20T02:30:33;17.08;;;6.68;;
55989;SDS011;41875;55.806;38.082;2022-11-20T02:33:02;17.48;;;6.65;;
55989;SDS011;41875;55.806;38.082;2022-11-20T02:35:40;23.83;;;7.38;;
55989;SDS011;41875;55.806;38.082;2022-11-20T02:38:13;14.52;;;5.95;;
55989;SDS011;41875;55.806;38.082;2022-11-20T02:40:44;14.85;;;6.50;;
55989;SDS011;41875;55.806;38.082;2022-11-20T02:43:21;18.58;;;7.75;;
55989;SDS011;41875;55.806;38.082;2022-11-20T02:45:49;17.13;;;6.85;;
55989;SDS011;41875;55.806;38.082;2022-11-20T02:48:17;18.02;;;6.57;;
55989;SDS011;41875;55.806;38.082;2022-11-20T02:50:46;14.13;;;5.95;;
55989;SDS011;41875;55.806;38.082;2022-11-20T02:53:14;18.02;;;6.03;;
55989;SDS011;41875;55.806;38.082;2022-11-20T02:55:44;15.55;;;6.50;;
55989;SDS011;41875;55.806;38.082;2022-11-20T02:58:12;18.17;;;6.80;;
55989;SDS011;41875;55.806;38.082;2022-11-20T03:00:41;15.10;;;6.03;;
55989;SDS011;41875;55.806;38.082;2022-11-20T03:03:09;13.65;;;5.93;;
55989;SDS011;41875;55.806;38.082;2022-11-20T03:05:38;13.27;;;6.43;;
55989;SDS011;41875;55.806;38.082;2022-11-20T03:08:06;15.73;;;6.68;;
55989;SDS011;41875;55.806;38.082;2022-11-20T03:13:04;14.68;;;5.60;;
55989;SDS011;41875;55.806;38.082;2022-11-20T03:15:33;16.35;;;6.22;;
55989;SDS011;41875;55.806;38.082;2022-11-20T03:18:03;15.32;;;6.40;;
55989;SDS011;41875;55.806;38.082;2022-11-20T03:20:32;15.93;;;6.15;;
55989;SDS011;41875;55.806;38.082;2022-11-20T03:23:01;18.63;;;7.53;;
55989;SDS011;41875;55.806;38.082;2022-11-20T03:25:30;20.73;;;8.35;;
55989;SDS011;41875;55.806;38.082;2022-11-20T03:27:59;15.75;;;7.00;;
55989;SDS011;41875;55.806;38.082;2022-11-20T03:30:28;18.63;;;6.85;;
55989;SDS011;41875;55.806;38.082;2022-11-20T03:32:57;17.70;;;7.03;;
55989;SDS011;41875;55.806;38.082;2022-11-20T03:35:25;15.43;;;5.38;;
55989;SDS011;41875;55.806;38.082;2022-11-20T03:37:54;19.70;;;7.75;;
55989;SDS011;41875;55.806;38.082;2022-11-20T03:40:22;16.15;;;6.18;;
55989;SDS011;41875;55.806;38.082;2022-11-20T03:42:53;17.95;;;6.88;;
55989;SDS011;41875;55.806;38.082;2022-11-20T03:45:22;18.65;;;6.95;;
55989;SDS011;41875;55.806;38.082;2022-11-20T03:47:54;16.83;;;6.68;;
55989;SDS011;41875;55.806;38.082;2022-11-20T03:50:23;17.85;;;7.15;;
55989;SDS011;41875;55.806;38.082;2022-11-20T03:52:54;19.00;;;7.38;;
55989;SDS011;41875;55.806;38.082;2022-11-20T03:55:22;17.77;;;7.55;;
55989;SDS011;41875;55.806;38.082;2022-11-20T03:57:51;21.98;;;7.15;;
55989;SDS011;41875;55.806;38.082;2022-11-20T04:02:50;16.25;;;5.70;;
55989;SDS011;41875;55.806;38.082;2022-11-20T04:05:20;17.35;;;7.70;;
55989;SDS011;41875;55.806;38.082;2022-11-20T04:07:48;16.02;;;6.82;;
55989;SDS011;41875;55.806;38.082;2022-11-20T04:10:17;16.20;;;6.45;;
55989;SDS011;41875;55.806;38.082;2022-11-20T04:15:14;20.50;;;7.82;;
55989;SDS011;41875;55.806;38.082;2022-11-20T04:17:43;20.42;;;7.85;;
55989;SDS011;41875;55.806;38.082;2022-11-20T04:20:11;19.58;;;7.88;;
55989;SDS011;41875;55.806;38.082;2022-11-20T04:22:41;20.40;;;7.18;;
55989;SDS011;41875;55.806;38.082;2022-11-20T04:25:10;18.60;;;7.38;;
55989;SDS011;41875;55.806;38.082;2022-11-20T04:30:07;17.63;;;7.60;;
55989;SDS011;41875;55.806;38.082;2022-11-20T04:32:37;17.63;;;7.55;;
55989;SDS011;41875;55.806;38.082;2022-11-20T04:35:05;19.70;;;7.47;;
55989;SDS011;41875;55.806;38.082;2022-11-20T04:37:34;17.45;;;7.50;;
55989;SDS011;41875;55.806;38.082;2022-11-20T04:40:05;22.88;;;8.57;;
55989;SDS011;41875;55.806;38.082;2022-11-20T04:42:34;17.63;;;7.55;;
55989;SDS011;41875;55.806;38.082;2022-11-20T04:45:02;19.65;;;7.68;;
55989;SDS011;41875;55.806;38.082;2022-11-20T04:47:31;18.05;;;7.65;;
55989;SDS011;41875;55.806;38.082;2022-11-20T04:49:59;17.63;;;7.20;;
55989;SDS011;41875;55.806;38.082;2022-11-20T04:52:29;21.85;;;7.55;;
55989;SDS011;41875;55.806;38.082;2022-11-20T04:54:57;17.00;;;6.57;;
55989;SDS011;41875;55.806;38.082;2022-11-20T04:57:27;18.73;;;7.53;;
55989;SDS011;41875;55.806;38.082;2022-11-20T04:59:56;18.45;;;7.30;;
55989;SDS011;41875;55.806;38.082;2022-11-20T05:04:52;18.30;;;6.97;;
55989;SDS011;41875;55.806;38.082;2022-11-20T05:07:21;20.85;;;8.73;;
55989;SDS011;41875;55.806;38.082;2022-11-20T05:09:49;20.08;;;7.50;;
55989;SDS011;41875;55.806;38.082;2022-11-20T05:12:17;23.52;;;8.38;;
55989;SDS011;41875;55.806;38.082;2022-11-20T05:14:47;16.83;;;6.95;;
55989;SDS011;41875;55.806;38.082;2022-11-20T05:17:16;20.98;;;7.95;;
55989;SDS011;41875;55.806;38.082;2022-11-20T05:19:44;17.65;;;7.07;;
55989;SDS011;41875;55.806;38.082;2022-11-20T05:22:18;20.70;;;7.65;;
55989;SDS011;41875;55.806;38.082;2022-11-20T05:24:47;19.60;;;7.72;;
55989;SDS011;41875;55.806;38.082;2022-11-20T05:27:15;19.45;;;8.02;;
55989;SDS011;41875;55.806;38.082;2022-11-20T05:29:44;18.63;;;7.32;;
55989;SDS011;41875;55.806;38.082;2022-11-20T05:32:14;20.77;;;8.68;;
55989;SDS011;41875;55.806;38.082;2022-11-20T05:34:42;17.80;;;7.15;;
55989;SDS011;41875;55.806;38.082;2022-11-20T05:37:10;21.15;;;7.90;;
55989;SDS011;41875;55.806;38.082;2022-11-20T05:39:39;20.08;;;7.35;;
55989;SDS011;41875;55.806;38.082;2022-11-20T05:42:07;19.02;;;7.95;;
55989;SDS011;41875;55.806;38.082;2022-11-20T05:44:53;17.85;;;7.00;;
55989;SDS011;41875;55.806;38.082;2022-11-20T05:47:23;18.98;;;7.75;;
55989;SDS011;41875;55.806;38.082;2022-11-20T05:49:52;21.92;;;8.38;;
55989;SDS011;41875;55.806;38.082;2022-11-20T05:52:20;22.20;;;8.38;;
55989;SDS011;41875;55.806;38.082;2022-11-20T05:54:49;19.15;;;7.68;;
55989;SDS011;41875;55.806;38.082;2022-11-20T05:57:17;17.92;;;8.45;;
55989;SDS011;41875;55.806;38.082;2022-11-20T05:59:46;20.23;;;7.72;;
55989;SDS011;41875;55.806;38.082;2022-11-20T06:02:14;16.80;;;7.15;;
55989;SDS011;41875;55.806;38.082;2022-11-20T06:07:12;18.30;;;7.05;;
55989;SDS011;41875;55.806;38.082;2022-11-20T06:09:41;20.42;;;8.35;;
55989;SDS011;41875;55.806;38.082;2022-11-20T06:12:09;17.08;;;7.20;;
55989;SDS011;41875;55.806;38.082;2022-11-20T06:14:38;17.65;;;7.35;;
55989;SDS011;41875;55.806;38.082;2022-11-20T06:17:06;22.42;;;8.45;;
55989;SDS011;41875;55.806;38.082;2022-11-20T06:19:35;19.08;;;8.35;;
55989;SDS011;41875;55.806;38.082;2022-11-20T06:22:05;19.83;;;7.57;;
55989;SDS011;41875;55.806;38.082;2022-11-20T06:24:33;18.23;;;7.45;;
55989;SDS011;41875;55.806;38.082;2022-11-20T06:27:02;16.38;;;6.88;;
55989;SDS011;41875;55.806;38.082;2022-11-20T06:29:30;16.77;;;7.35;;
55989;SDS011;41875;55.806;38.082;2022-11-20T06:31:59;17.85;;;7.63;;
55989;SDS011;41875;55.806;38.082;2022-11-20T06:36:56;21.40;;;7.47;;
55989;SDS011;41875;55.806;38.082;2022-11-20T06:39:26;16.50;;;7.40;;
55989;SDS011;41875;55.806;38.082;2022-11-20T06:41:54;18.27;;;7.47;;
55989;SDS011;41875;55.806;38.082;2022-11-20T06:44:25;17.92;;;7.53;;
55989;SDS011;41875;55.806;38.082;2022-11-20T06:46:53;20.45;;;8.52;;
55989;SDS011;41875;55.806;38.082;2022-11-20T06:49:22;17.35;;;8.35;;
55989;SDS011;41875;55.806;38.082;2022-11-20T06:51:51;19.48;;;7.28;;
55989;SDS011;41875;55.806;38.082;2022-11-20T06:54:21;18.13;;;7.20;;
55989;SDS011;41875;55.806;38.082;2022-11-20T06:56:50;18.35;;;7.38;;
55989;SDS011;41875;55.806;38.082;2022-11-20T06:59:19;20.88;;;8.32;;
55989;SDS011;41875;55.806;38.082;2022-11-20T07:01:48;18.73;;;7.30;;
55989;SDS011;41875;55.806;38.082;2022-11-20T07:04:17;36.45;;;11.05;;
55989;SDS011;41875;55.806;38.082;2022-11-20T07:06:45;18.88;;;8.45;;
55989;SDS011;41875;55.806;38.082;2022-11-20T07:09:14;20.98;;;8.25;;
55989;SDS011;41875;55.806;38.082;2022-11-20T07:11:42;16.80;;;7.30;;
55989;SDS011;41875;55.806;38.082;2022-11-20T07:14:12;21.38;;;8.73;;
55989;SDS011;41875;55.806;38.082;2022-11-20T07:16:41;16.40;;;6.50;;
55989;SDS011;41875;55.806;38.082;2022-11-20T07:21:38;15.88;;;6.32;;
55989;SDS011;41875;55.806;38.082;2022-11-20T07:24:06;17.52;;;7.20;;
55989;SDS011;41875;55.806;38.082;2022-11-20T07:26:35;17.40;;;7.20;;
55989;SDS011;41875;55.806;38.082;2022-11-20T07:29:03;15.15;;;6.00;;
55989;SDS011;41875;55.806;38.082;2022-11-20T07:31:33;15.70;;;6.35;;
55989;SDS011;41875;55.806;38.082;2022-11-20T07:34:02;19.25;;;7.00;;
55989;SDS011;41875;55.806;38.082;2022-11-20T07:36:31;15.65;;;6.72;;
55989;SDS011;41875;55.806;38.082;2022-11-20T07:38:59;18.13;;;7.57;;
55989;SDS011;41875;55.806;38.082;2022-11-20T07:43:58;18.23;;;7.40;;
55989;SDS011;41875;55.806;38.082;2022-11-20T07:46:27;18.08;;;6.80;;
55989;SDS011;41875;55.806;38.082;2022-11-20T07:48:56;20.15;;;7.45;;
55989;SDS011;41875;55.806;38.082;2022-11-20T07:51:25;15.73;;;6.93;;
55989;SDS011;41875;55.806;38.082;2022-11-20T07:56:42;16.40;;;6.25;;
55989;SDS011;41875;55.806;38.082;2022-11-20T07:59:22;18.58;;;7.68;;
55989;SDS011;41875;55.806;38.082;2022-11-20T08:01:51;16.50;;;7.15;;
55989;SDS011;41875;55.806;38.082;2022-11-20T08:04:23;16.33;;;7.63;;
55989;SDS011;41875;55.806;38.082;2022-11-20T08:06:51;18.83;;;7.53;;
55989;SDS011;41875;55.806;38.082;2022-11-20T08:09:20;21.85;;;8.05;;
55989;SDS011;41875;55.806;38.082;2022-11-20T08:12:04;19.63;;;7.55;;
55989;SDS011;41875;55.806;38.082;2022-11-20T08:15:27;19.73;;;7.40;;
55989;SDS011;41875;55.806;38.082;2022-11-20T08:18:11;21.42;;;8.48;;
55989;SDS011;41875;55.806;38.082;2022-11-20T08:21:02;24.02;;;9.23;;
55989;SDS011;41875;55.806;38.082;2022-11-20T08:23:31;22.27;;;8.25;;
55989;SDS011;41875;55.806;38.082;2022-11-20T08:28:28;16.17;;;7.88;;
55989;SDS011;41875;55.806;38.082;2022-11-20T08:30:59;21.00;;;7.88;;
55989;SDS011;41875;55.806;38.082;2022-11-20T08:33:29;19.52;;;7.85;;
55989;SDS011;41875;55.806;38.082;2022-11-20T08:35:59;19.38;;;7.50;;
55989;SDS011;41875;55.806;38.082;2022-11-20T08:38:30;20.13;;;7.88;;
55989;SDS011;41875;55.806;38.082;2022-11-20T08:40:59;18.40;;;7.05;;
55989;SDS011;41875;55.806;38.082;2022-11-20T08:43:46;16.02;;;7.18;;
55989;SDS011;41875;55.806;38.082;2022-11-20T08:46:14;17.27;;;7.15;;
55989;SDS011;41875;55.806;38.082;2022-11-20T08:48:43;19.40;;;7.55;;
55989;SDS011;41875;55.806;38.082;2022-11-20T08:51:12;17.48;;;8.00;;
55989;SDS011;41875;55.806;38.082;2022-11-20T08:53:42;19.63;;;7.90;;
55989;SDS011;41875;55.806;38.082;2022-11-20T08:56:11;21.05;;;8.25;;
55989;SDS011;41875;55.806;38.082;2022-11-20T08:58:40;17.73;;;7.82;;
55989;SDS011;41875;55.806;38.082;2022-11-20T09:01:28;17.67;;;7.45;;
55989;SDS011;41875;55.806;38.082;2022-11-20T09:03:57;20.23;;;8.40;;
55989;SDS011;41875;55.806;38.082;2022-11-20T09:06:26;17.50;;;7.63;;
55989;SDS011;41875;55.806;38.082;2022-11-20T09:08:56;17.40;;;8.52;;
55989;SDS011;41875;55.806;38.082;2022-11-20T09:11:31;20.50;;;8.93;;
55989;SDS011;41875;55.806;38.082;2022-11-20T09:16:29;19.27;;;8.50;;
55989;SDS011;41875;55.806;38.082;2022-11-20T09:18:57;20.52;;;8.10;;
55989;SDS011;41875;55.806;38.082;2022-11-20T09:21:46;20.63;;;8.20;;
55989;SDS011;41875;55.806;38.082;2022-11-20T09:26:49;19.17;;;8.13;;
55989;SDS011;41875;55.806;38.082;2022-11-20T09:29:21;20.00;;;8.23;;
55989;SDS011;41875;55.806;38.082;2022-11-20T09:31:50;17.13;;;7.63;;
55989;SDS011;41875;55.806;38.082;2022-11-20T09:36:47;20.65;;;7.88;;
55989;SDS011;41875;55.806;38.082;2022-11-20T09:39:17;18.95;;;8.10;;
55989;SDS011;41875;55.806;38.082;2022-11-20T09:41:51;23.10;;;8.95;;
55989;SDS011;41875;55.806;38.082;2022-11-20T09:47:40;19.80;;;7.88;;
55989;SDS011;41875;55.806;38.082;2022-11-20T09:50:23;22.50;;;8.48;;
55989;SDS011;41875;55.806;38.082;2022-11-20T09:53:01;19.15;;;8.45;;
55989;SDS011;41875;55.806;38.082;2022-11-20T09:55:43;25.95;;;10.60;;
55989;SDS011;41875;55.806;38.082;2022-11-20T09:58:16;25.98;;;10.80;;
55989;SDS011;41875;55.806;38.082;2022-11-20T10:00:56;19.58;;;8.68;;
55989;SDS011;41875;55.806;38.082;2022-11-20T10:03:31;21.17;;;8.88;;
55989;SDS011;41875;55.806;38.082;2022-11-20T10:06:09;18.88;;;8.57;;
55989;SDS011;41875;55.806;38.082;2022-11-20T10:08:41;21.75;;;9.13;;
55989;SDS011;41875;55.806;38.082;2022-11-20T10:11:14;25.02;;;9.70;;
55989;SDS011;41875;55.806;38.082;2022-11-20T10:13:57;30.83;;;13.13;;
55989;SDS011;41875;55.806;38.082;2022-11-20T10:16:36;22.48;;;10.13;;
55989;SDS011;41875;55.806;38.082;2022-11-20T10:19:19;24.30;;;9.68;;
55989;SDS011;41875;55.806;38.082;2022-11-20T10:22:00;22.45;;;9.55;;
55989;SDS011;41875;55.806;38.082;2022-11-20T10:24:41;22.25;;;9.90;;
55989;SDS011;41875;55.806;38.082;2022-11-20T10:27:21;23.08;;;9.25;;
55989;SDS011;41875;55.806;38.082;2022-11-20T10:30:01;22.75;;;9.35;;
55989;SDS011;41875;55.806;38.082;2022-11-20T10:32:32;22.67;;;8.68;;
55989;SDS011;41875;55.806;38.082;2022-11-20T10:35:07;27.38;;;9.75;;
55989;SDS011;41875;55.806;38.082;2022-11-20T10:37:48;23.65;;;9.13;;
55989;SDS011;41875;55.806;38.082;2022-11-20T10:40:23;25.05;;;10.30;;
55989;SDS011;41875;55.806;38.082;2022-11-20T10:43:07;27.08;;;10.18;;
55989;SDS011;41875;55.806;38.082;2022-11-20T10:45:45;24.52;;;10.70;;
55989;SDS011;41875;55.806;38.082;2022-11-20T10:48:20;24.38;;;8.68;;
55989;SDS011;41875;55.806;38.082;2022-11-20T10:50:54;24.60;;;9.75;;
55989;SDS011;41875;55.806;38.082;2022-11-20T10:53:37;28.55;;;9.95;;
55989;SDS011;41875;55.806;38.082;2022-11-20T10:56:16;31.17;;;10.88;;
55989;SDS011;41875;55.806;38.082;2022-11-20T10:58:52;28.15;;;10.82;;
55989;SDS011;41875;55.806;38.082;2022-11-20T11:01:28;31.63;;;10.43;;
55989;SDS011;41875;55.806;38.082;2022-11-20T11:03:57;25.95;;;10.20;;
55989;SDS011;41875;55.806;38.082;2022-11-20T11:06:28;30.75;;;10.60;;
55989;SDS011;41875;55.806;38.082;2022-11-20T11:09:04;29.05;;;10.43;;
55989;SDS011;41875;55.806;38.082;2022-11-20T11:11:39;29.25;;;11.10;;
55989;SDS011;41875;55.806;38.082;2022-11-20T11:14:10;31.15;;;11.60;;
55989;SDS011;41875;55.806;38.082;2022-11-20T11:16:48;31.90;;;11.23;;
55989;SDS011;41875;55.806;38.082;2022-11-20T11:19:18;30.65;;;10.27;;
55989;SDS011;41875;55.806;38.082;2022-11-20T11:21:48;35.00;;;11.18;;
55989;SDS011;41875;55.806;38.082;2022-11-20T11:24:22;26.33;;;10.43;;
55989;SDS011;41875;55.806;38.082;2022-11-20T11:27:10;33.55;;;10.95;;
55989;SDS011;41875;55.806;38.082;2022-11-20T11:29:44;36.45;;;12.32;;
55989;SDS011;41875;55.806;38.082;2022-11-20T11:32:14;30.65;;;11.50;;
55989;SDS011;41875;55.806;38.082;2022-11-20T11:34:43;41.85;;;11.40;;
55989;SDS011;41875;55.806;38.082;2022-11-20T11:37:15;33.33;;;10.75;;
55989;SDS011;41875;55.806;38.082;2022-11-20T11:39:48;36.83;;;12.43;;
55989;SDS011;41875;55.806;38.082;2022-11-20T11:42:40;34.13;;;12.02;;
55989;SDS011;41875;55.806;38.082;2022-11-20T11:45:13;34.15;;;12.02;;
55989;SDS011;41875;55.806;38.082;2022-11-20T11:47:44;31.15;;;12.30;;
55989;SDS011;41875;55.806;38.082;2022-11-20T11:50:16;37.50;;;12.75;;
55989;SDS011;41875;55.806;38.082;2022-11-20T11:52:49;41.08;;;13.48;;
55989;SDS011;41875;55.806;38.082;2022-11-20T11:55:29;40.10;;;12.88;;
55989;SDS011;41875;55.806;38.082;2022-11-20T11:58:08;34.05;;;12.13;;
55989;SDS011;41875;55.806;38.082;2022-11-20T12:00:47;40.65;;;13.45;;
55989;SDS011;41875;55.806;38.082;2022-11-20T12:03:24;37.00;;;13.73;;
55989;SDS011;41875;55.806;38.082;2022-11-20T12:05:58;36.33;;;12.85;;
55989;SDS011;41875;55.806;38.082;2022-11-20T12:08:31;37.17;;;13.93;;
55989;SDS011;41875;55.806;38.082;2022-11-20T12:11:06;34.95;;;12.10;;
55989;SDS011;41875;55.806;38.082;2022-11-20T12:13:42;41.63;;;12.90;;
55989;SDS011;41875;55.806;38.082;2022-11-20T12:16:18;38.60;;;12.35;;
55989;SDS011;41875;55.806;38.082;2022-11-20T12:18:49;42.03;;;12.43;;
55989;SDS011;41875;55.806;38.082;2022-11-20T12:21:20;37.15;;;12.93;;
55989;SDS011;41875;55.806;38.082;2022-11-20T12:24:05;38.72;;;12.35;;
55989;SDS011;41875;55.806;38.082;2022-11-20T12:26:46;35.90;;;12.18;;
55989;SDS011;41875;55.806;38.082;2022-11-20T12:29:28;31.52;;;11.57;;
55989;SDS011;41875;55.806;38.082;2022-11-20T12:32:12;35.55;;;12.23;;
55989;SDS011;41875;55.806;38.082;2022-11-20T12:35:00;29.42;;;10.45;;
55989;SDS011;41875;55.806;38.082;2022-11-20T12:37:41;28.02;;;10.63;;
55989;SDS011;41875;55.806;38.082;2022-11-20T12:40:24;30.05;;;11.45;;
55989;SDS011;41875;55.806;38.082;2022-11-20T12:43:02;34.17;;;11.98;;
55989;SDS011;41875;55.806;38.082;2022-11-20T12:46:03;35.38;;;10.32;;
55989;SDS011;41875;55.806;38.082;2022-11-20T12:48:43;39.70;;;11.93;;
55989;SDS011;41875;55.806;38.082;2022-11-20T12:51:37;31.63;;;11.18;;
55989;SDS011;41875;55.806;38.082;2022-11-20T12:57:12;28.65;;;10.93;;
55989;SDS011;41875;55.806;38.082;2022-11-20T12:59:52;34.30;;;11.85;;
55989;SDS011;41875;55.806;38.082;2022-11-20T13:02:48;37.72;;;12.63;;
55989;SDS011;41875;55.806;38.082;2022-11-20T13:05:46;33.08;;;10.85;;
55989;SDS011;41875;55.806;38.082;2022-11-20T13:08:28;39.22;;;12.30;;
55989;SDS011;41875;55.806;38.082;2022-11-20T13:11:01;35.72;;;12.02;;
55989;SDS011;41875;55.806;38.082;2022-11-20T13:13:41;40.72;;;12.57;;
55989;SDS011;41875;55.806;38.082;2022-11-20T13:16:16;35.90;;;12.67;;
55989;SDS011;41875;55.806;38.082;2022-11-20T13:18:52;42.30;;;12.07;;
55989;SDS011;41875;55.806;38.082;2022-11-20T13:21:23;37.05;;;12.95;;
55989;SDS011;41875;55.806;38.082;2022-11-20T13:24:04;32.60;;;11.55;;
55989;SDS011;41875;55.806;38.082;2022-11-20T13:26:33;35.58;;;11.77;;
55989;SDS011;41875;55.806;38.082;2022-11-20T13:31:33;33.92;;;11.18;;
55989;SDS011;41875;55.806;38.082;2022-11-20T13:34:05;35.22;;;11.70;;
55989;SDS011;41875;55.806;38.082;2022-11-20T13:36:49;39.42;;;13.32;;
55989;SDS011;41875;55.806;38.082;2022-11-20T13:39:26;34.95;;;12.50;;
55989;SDS011;41875;55.806;38.082;2022-11-20T13:41:55;37.67;;;12.38;;
55989;SDS011;41875;55.806;38.082;2022-11-20T13:44:25;43.58;;;13.20;;
55989;SDS011;41875;55.806;38.082;2022-11-20T13:47:00;45.42;;;14.25;;
55989;SDS011;41875;55.806;38.082;2022-11-20T13:49:37;43.97;;;13.30;;
55989;SDS011;41875;55.806;38.082;2022-11-20T13:52:24;43.63;;;13.65;;
55989;SDS011;41875;55.806;38.082;2022-11-20T13:55:11;52.47;;;16.33;;
55989;SDS011;41875;55.806;38.082;2022-11-20T13:58:15;49.88;;;15.32;;
55989;SDS011;41875;55.806;38.082;2022-11-20T14:01:10;48.08;;;14.82;;
55989;SDS011;41875;55.806;38.082;2022-11-20T14:03:43;51.03;;;14.98;;
55989;SDS011;41875;55.806;38.082;2022-11-20T14:06:39;47.75;;;15.20;;
55989;SDS011;41875;55.806;38.082;2022-11-20T14:09:24;48.08;;;14.13;;
55989;SDS011;41875;55.806;38.082;2022-11-20T14:11:54;52.47;;;15.00;;
55989;SDS011;41875;55.806;38.082;2022-11-20T14:14:24;51.13;;;15.63;;
55989;SDS011;41875;55.806;38.082;2022-11-20T14:17:04;50.40;;;15.77;;
55989;SDS011;41875;55.806;38.082;2022-11-20T14:19:34;55.40;;;17.60;;
55989;SDS011;41875;55.806;38.082;2022-11-20T14:22:08;56.05;;;15.85;;
55989;SDS011;41875;55.806;38.082;2022-11-20T14:24:40;51.72;;;14.73;;
55989;SDS011;41875;55.806;38.082;2022-11-20T14:27:12;50.38;;;15.60;;
55989;SDS011;41875;55.806;38.082;2022-11-20T14:29:42;48.22;;;14.98;;
55989;SDS011;41875;55.806;38.082;2022-11-20T14:32:14;43.90;;;14.30;;
55989;SDS011;41875;55.806;38.082;2022-11-20T14:34:44;53.40;;;14.68;;
55989;SDS011;41875;55.806;38.082;2022-11-20T14:37:17;44.22;;;14.25;;
55989;SDS011;41875;55.806;38.082;2022-11-20T14:39:51;41.22;;;14.82;;
55989;SDS011;41875;55.806;38.082;2022-11-20T14:42:22;47.33;;;14.38;;
55989;SDS011;41875;55.806;38.082;2022-11-20T14:44:52;49.38;;;14.38;;
55989;SDS011;41875;55.806;38.082;2022-11-20T14:47:24;43.70;;;13.68;;
55989;SDS011;41875;55.806;38.082;2022-11-20T14:49:54;58.35;;;14.95;;
55989;SDS011;41875;55.806;38.082;2022-11-20T14:52:25;47.05;;;13.90;;
55989;SDS011;41875;55.806;38.082;2022-11-20T14:54:56;44.45;;;15.18;;
55989;SDS011;41875;55.806;38.082;2022-11-20T14:57:29;55.65;;;19.67;;
55989;SDS011;41875;55.806;38.082;2022-11-20T15:00:04;71.10;;;23.05;;
55989;SDS011;41875;55.806;38.082;2022-11-20T15:02:47;61.70;;;18.90;;
55989;SDS011;41875;55.806;38.082;2022-11-20T15:05:17;59.72;;;16.38;;
55989;SDS011;41875;55.806;38.082;2022-11-20T15:07:47;54.90;;;16.75;;
55989;SDS011;41875;55.806;38.082;2022-11-20T15:10:23;61.63;;;16.60;;
55989;SDS011;41875;55.806;38.082;2022-11-20T15:12:53;52.03;;;16.08;;
55989;SDS011;41875;55.806;38.082;2022-11-20T15:15:25;58.47;;;18.77;;
55989;SDS011;41875;55.806;38.082;2022-11-20T15:17:58;58.75;;;18.23;;
55989;SDS011;41875;55.806;38.082;2022-11-20T15:20:27;52.28;;;16.02;;
55989;SDS011;41875;55.806;38.082;2022-11-20T15:22:59;49.20;;;16.45;;
55989;SDS011;41875;55.806;38.082;2022-11-20T15:27:57;56.85;;;16.48;;
55989;SDS011;41875;55.806;38.082;2022-11-20T15:30:25;51.70;;;16.67;;
55989;SDS011;41875;55.806;38.082;2022-11-20T15:32:54;59.83;;;16.08;;
55989;SDS011;41875;55.806;38.082;2022-11-20T15:35:22;45.35;;;15.45;;
55989;SDS011;41875;55.806;38.082;2022-11-20T15:37:51;55.45;;;14.93;;
55989;SDS011;41875;55.806;38.082;2022-11-20T15:40:20;49.78;;;15.27;;
55989;SDS011;41875;55.806;38.082;2022-11-20T15:42:49;52.15;;;15.65;;